Todds Mill, Illinois
Current Conditions -  °F | °C
As of 2:15 AM on Thursday 18 Dec 2014 (Local Time) from KSAR Reporting Station
Overcast Overcast  
Wind Chill: 24°   Ceiling: 7500
Heat Index: 31°   Visibility: 10mi
Dew Point: 27°   Wind: 7mph
Humidity: 87%   Direction: 90°E
Pressure: 30.27"   Gusts: NA
Location:  38.318°N, 89.3879°W
Report Text: KSAR 180815Z AUTO 09006KT 10SM SCT065 OVC075 M01/M03 A3027 RMK AO2 T10081027
Loading
Personal Weather Stations






























Interactive Weather Map New forecast layout! Learn more

10-Day Weather Forecast

Advertisements
Track Severe Weather on mobile